Time;durP1;ratioP1;P1;durP2;ratioP2;P2;SDS_P1;SDS_P2;PMS_P1;PMS_P2;Temp;Humidity;BMP_temperature;BMP_pressure;BME280_temperature;BME280_humidity;BME280_pressure;Samples;Min_cycle;Max_cycle;Signal;HPM_P1;HPM_P2
2021/03/12 00:01:00;;;;;;;14.33;13.63;;;23.00;94.60;;;;;;5100457;28;20438;-72
2021/03/12 00:03:31;;;;;;;13.90;12.67;;;23.00;94.60;;;;;;5098810;28;20459;-74
2021/03/12 00:06:05;;;;;;;13.10;12.10;;;23.00;94.60;;;;;;5073815;28;20308;-76
2021/03/12 00:08:37;;;;;;;13.63;12.83;;;23.00;94.60;;;;;;5096422;28;20436;-72
2021/03/12 00:11:04;;;;;;;12.63;11.77;;;23.00;94.50;;;;;;5070574;28;20905;-73
2021/03/12 00:13:30;;;;;;;13.53;12.60;;;23.00;94.50;;;;;;5083454;28;20548;-75
2021/03/12 00:15:56;;;;;;;13.27;12.53;;;23.00;94.50;;;;;;5075388;28;20516;-75
2021/03/12 00:18:32;;;;;;;13.70;12.90;;;23.00;94.50;;;;;;5077651;28;20719;-73
2021/03/12 00:20:58;;;;;;;13.80;13.10;;;23.00;94.50;;;;;;5097951;28;20573;-76
2021/03/12 00:23:23;;;;;;;12.70;11.87;;;23.00;94.50;;;;;;5094656;28;20956;-76
2021/03/12 00:25:49;;;;;;;12.20;11.63;;;23.00;94.50;;;;;;5100804;28;20563;-75
2021/03/12 00:28:18;;;;;;;13.80;13.03;;;23.00;94.50;;;;;;5107240;28;20182;-76
2021/03/12 00:30:45;;;;;;;13.70;12.80;;;23.00;94.80;;;;;;5083638;28;20205;-76
2021/03/12 00:33:12;;;;;;;12.83;12.23;;;23.00;94.50;;;;;;5098298;28;20504;-76
2021/03/12 00:35:40;;;;;;;13.83;12.93;;;23.00;94.50;;;;;;5096000;28;20447;-76
2021/03/12 00:38:06;;;;;;;13.30;12.70;;;23.00;94.40;;;;;;5099743;27;20563;-75
2021/03/12 00:40:45;;;;;;;14.47;13.63;;;23.00;94.40;;;;;;5099684;28;20474;-72
2021/03/12 00:43:12;;;;;;;13.43;12.70;;;23.00;94.40;;;;;;5102187;28;20182;-70
2021/03/12 00:45:40;;;;;;;13.60;12.90;;;23.00;94.40;;;;;;5103241;27;20429;-76
2021/03/12 00:48:06;;;;;;;15.17;14.27;;;23.00;94.40;;;;;;5105011;28;20829;-74
2021/03/12 00:50:34;;;;;;;15.10;14.27;;;23.00;94.40;;;;;;5104868;28;20431;-74
2021/03/12 00:53:00;;;;;;;13.67;13.07;;;23.00;94.80;;;;;;5105148;28;20459;-73
2021/03/12 00:55:26;;;;;;;12.80;12.20;;;23.00;94.40;;;;;;5080525;28;20531;-73
2021/03/12 00:57:51;;;;;;;13.43;12.73;;;23.00;94.40;;;;;;5105151;28;20434;-73
2021/03/12 01:00:25;;;;;;;12.77;12.17;;;23.00;94.40;;;;;;5083466;28;20866;-72
2021/03/12 01:02:51;;;;;;;12.77;12.17;;;23.00;94.40;;;;;;5102194;28;20174;-73
2021/03/12 01:05:18;;;;;;;11.93;11.33;;;22.90;94.30;;;;;;5105311;28;20466;-71
2021/03/12 01:07:45;;;;;;;12.40;11.70;;;22.90;94.30;;;;;;5104919;28;20940;-74
2021/03/12 01:10:11;;;;;;;12.80;12.20;;;22.90;94.30;;;;;;5107179;28;20456;-73
2021/03/12 01:12:37;;;;;;;14.10;13.40;;;22.90;94.30;;;;;;5106242;27;20554;-71
2021/03/12 01:15:09;;;;;;;12.60;12.00;;;22.90;94.30;;;;;;5086566;28;20554;-72
2021/03/12 01:17:35;;;;;;;13.83;12.83;;;22.90;94.30;;;;;;5104529;28;20178;-72
2021/03/12 01:20:04;;;;;;;12.80;12.13;;;22.90;94.30;;;;;;5106283;28;20428;-73
2021/03/12 01:22:29;;;;;;;12.97;12.27;;;22.90;94.30;;;;;;5105974;28;20577;-73
2021/03/12 01:24:55;;;;;;;13.50;12.60;;;22.90;94.30;;;;;;5087554;28;20972;-72
2021/03/12 01:27:21;;;;;;;13.47;12.57;;;22.90;94.30;;;;;;5100744;28;20221;-74
2021/03/12 01:29:47;;;;;;;12.93;12.33;;;22.90;94.30;;;;;;5104749;27;20213;-73
2021/03/12 01:32:13;;;;;;;12.97;12.27;;;22.90;94.30;;;;;;5103400;28;20757;-72
2021/03/12 01:34:39;;;;;;;13.23;12.63;;;22.90;94.30;;;;;;5104387;28;20471;-72
2021/03/12 01:37:05;;;;;;;13.43;12.73;;;22.90;94.30;;;;;;5104008;28;20592;-76
2021/03/12 01:39:31;;;;;;;13.70;12.80;;;22.90;94.30;;;;;;5079539;28;20883;-72
2021/03/12 01:41:57;;;;;;;13.77;13.17;;;22.90;94.30;;;;;;5105279;28;20431;-73
2021/03/12 01:44:22;;;;;;;14.17;13.47;;;22.90;94.30;;;;;;5087070;28;20248;-72
2021/03/12 01:46:48;;;;;;;13.83;12.93;;;22.90;94.30;;;;;;5085110;28;20383;-73
2021/03/12 01:49:13;;;;;;;13.30;12.50;;;22.90;94.20;;;;;;5105290;28;20265;-73
2021/03/12 01:51:39;;;;;;;13.30;12.63;;;22.90;94.20;;;;;;5106619;28;20215;-73
2021/03/12 01:54:05;;;;;;;14.47;13.37;;;22.90;94.30;;;;;;5103343;28;20238;-73
2021/03/12 01:56:31;;;;;;;13.97;13.33;;;22.90;94.20;;;;;;5087548;28;20210;-73
2021/03/12 01:58:56;;;;;;;13.50;12.67;;;22.80;94.20;;;;;;5083429;28;20438;-73
2021/03/12 02:01:22;;;;;;;13.60;12.90;;;22.90;94.20;;;;;;5104940;28;20217;-73
2021/03/12 02:03:48;;;;;;;13.33;12.63;;;22.80;94.20;;;;;;5102991;28;20208;-73
2021/03/12 02:06:13;;;;;;;14.07;13.27;;;22.80;94.10;;;;;;5105025;28;20213;-73
2021/03/12 02:08:39;;;;;;;12.90;12.10;;;22.80;94.20;;;;;;5106251;28;20185;-73
2021/03/12 02:11:05;;;;;;;13.33;12.70;;;22.80;94.10;;;;;;5087656;28;20548;-71
2021/03/12 02:14:01;;;;;;;14.23;13.50;;;22.80;94.10;;;;;;5086583;28;20594;-72
2021/03/12 02:16:39;;;;;;;13.00;12.30;;;22.80;94.10;;;;;;5106949;28;20209;-71
2021/03/12 02:19:44;;;;;;;13.30;12.43;;;22.80;94.10;;;;;;5103071;28;20804;-73
2021/03/12 02:22:12;;;;;;;13.27;12.47;;;22.80;94.10;;;;;;5104821;28;20455;-71
2021/03/12 02:24:46;;;;;;;12.37;11.77;;;22.80;94.10;;;;;;5082498;28;20424;-73
2021/03/12 02:27:14;;;;;;;13.73;13.03;;;22.80;94.10;;;;;;5081841;28;20427;-75
2021/03/12 02:29:45;;;;;;;13.90;13.20;;;22.80;94.10;;;;;;5096761;28;20431;-75
2021/03/12 02:32:15;;;;;;;14.00;13.30;;;22.80;94.20;;;;;;5079223;28;20447;-73
2021/03/12 02:34:44;;;;;;;13.10;12.47;;;22.80;94.10;;;;;;5095587;28;20887;-75
2021/03/12 02:37:12;;;;;;;13.17;12.53;;;22.80;94.10;;;;;;5097505;28;20462;-75
2021/03/12 02:39:45;;;;;;;14.03;13.33;;;22.80;94.10;;;;;;5095991;28;21274;-75
2021/03/12 02:42:13;;;;;;;13.20;12.50;;;22.80;94.10;;;;;;5086049;28;20805;-72
2021/03/12 02:44:39;;;;;;;12.90;12.30;;;22.80;94.10;;;;;;5099497;28;20499;-71
2021/03/12 02:47:16;;;;;;;13.53;12.80;;;22.80;94.10;;;;;;5100157;28;20774;-72
2021/03/12 02:49:43;;;;;;;13.63;13.03;;;22.80;94.10;;;;;;5085774;28;20189;-73
2021/03/12 02:52:09;;;;;;;13.57;12.87;;;22.80;94.00;;;;;;5103291;28;20431;-71
2021/03/12 02:54:35;;;;;;;13.70;12.80;;;22.80;94.10;;;;;;5101454;28;20529;-71
2021/03/12 02:57:01;;;;;;;14.87;13.80;;;22.80;94.00;;;;;;5095897;28;20817;-71
2021/03/12 02:59:28;;;;;;;12.70;12.10;;;22.80;94.00;;;;;;5099158;28;20428;-72
2021/03/12 03:01:54;;;;;;;12.97;12.30;;;22.80;94.00;;;;;;5094454;28;21213;-72
2021/03/12 03:04:21;;;;;;;12.60;11.90;;;22.80;94.00;;;;;;5101364;28;20671;-72
2021/03/12 03:06:48;;;;;;;13.63;12.77;;;22.80;94.00;;;;;;5104670;28;20968;-71
2021/03/12 03:09:15;;;;;;;12.70;12.00;;;22.80;94.00;;;;;;5078959;28;20480;-73
2021/03/12 03:11:42;;;;;;;13.83;13.23;;;22.80;94.00;;;;;;5106314;28;20518;-73
2021/03/12 03:14:08;;;;;;;12.47;11.87;;;22.80;94.00;;;;;;5104454;27;20554;-70
2021/03/12 03:16:37;;;;;;;13.27;12.67;;;22.80;94.00;;;;;;5100972;28;20452;-72
2021/03/12 03:19:05;;;;;;;12.30;11.77;;;22.80;94.00;;;;;;5078623;28;20948;-75
2021/03/12 03:21:33;;;;;;;12.60;11.90;;;22.80;94.00;;;;;;5096936;28;20515;-74
2021/03/12 03:23:58;;;;;;;13.80;13.10;;;22.80;93.90;;;;;;5101336;28;20435;-72
2021/03/12 03:26:24;;;;;;;13.80;13.10;;;22.80;93.90;;;;;;5097099;28;20924;-73
2021/03/12 03:28:51;;;;;;;14.00;13.30;;;22.80;93.90;;;;;;5100715;28;20655;-73
2021/03/12 03:31:17;;;;;;;13.37;12.77;;;22.80;93.90;;;;;;5094935;28;20204;-75
2021/03/12 03:33:42;;;;;;;13.80;13.20;;;22.80;93.90;;;;;;5098244;28;20820;-73
2021/03/12 03:36:09;;;;;;;13.77;13.10;;;22.80;93.90;;;;;;5101883;28;20448;-73
2021/03/12 03:38:34;;;;;;;14.10;13.50;;;22.80;93.90;;;;;;5103375;27;20182;-71
2021/03/12 03:41:10;;;;;;;14.30;13.50;;;22.80;93.90;;;;;;5103586;28;20479;-72
2021/03/12 03:43:41;;;;;;;13.07;12.47;;;22.80;93.90;;;;;;5098488;28;20638;-70
2021/03/12 03:46:08;;;;;;;13.97;13.27;;;22.80;93.90;;;;;;5097737;28;21036;-75
2021/03/12 03:48:35;;;;;;;13.90;13.10;;;22.70;93.80;;;;;;5097206;28;20419;-75
2021/03/12 03:51:02;;;;;;;12.90;12.20;;;22.80;93.90;;;;;;5078904;28;20819;-72
2021/03/12 03:53:31;;;;;;;13.20;12.60;;;22.80;93.90;;;;;;5104872;28;20447;-72
2021/03/12 03:55:59;;;;;;;12.10;11.40;;;22.70;93.80;;;;;;5102993;28;20443;-72
2021/03/12 03:58:26;;;;;;;12.60;12.00;;;22.80;93.80;;;;;;5084481;28;20847;-73
2021/03/12 04:00:52;;;;;;;12.77;12.17;;;22.70;93.80;;;;;;5099690;28;20916;-74
2021/03/12 04:03:17;;;;;;;13.07;12.33;;;22.70;93.80;;;;;;5101145;28;20447;-73
2021/03/12 04:05:44;;;;;;;11.87;11.23;;;22.70;93.80;;;;;;5080061;28;20452;-73
2021/03/12 04:08:10;;;;;;;13.00;12.40;;;22.80;93.80;;;;;;5071328;28;20190;-73
2021/03/12 04:10:36;;;;;;;12.10;11.60;;;22.70;93.70;;;;;;5099644;28;20442;-73
2021/03/12 04:13:03;;;;;;;11.73;11.13;;;22.70;93.70;;;;;;5102254;28;20734;-72
2021/03/12 04:15:29;;;;;;;13.30;12.60;;;22.70;93.70;;;;;;5086638;28;20816;-76
2021/03/12 04:17:56;;;;;;;12.57;11.90;;;22.70;93.70;;;;;;5082538;28;20428;-72
2021/03/12 04:20:22;;;;;;;12.50;11.90;;;22.70;93.70;;;;;;5104727;28;20182;-71
2021/03/12 04:22:50;;;;;;;13.33;12.77;;;22.70;93.70;;;;;;5085320;28;20932;-72
2021/03/12 04:25:16;;;;;;;12.60;11.97;;;22.70;93.70;;;;;;5104304;28;20640;-74
2021/03/12 04:27:43;;;;;;;11.07;10.57;;;22.70;93.70;;;;;;5105394;28;20496;-73
2021/03/12 04:30:09;;;;;;;11.93;11.43;;;22.70;93.70;;;;;;5102510;28;20432;-72
2021/03/12 04:32:38;;;;;;;11.30;10.60;;;22.70;93.70;;;;;;5100065;28;20436;-71
2021/03/12 04:35:06;;;;;;;12.10;11.40;;;22.70;93.70;;;;;;5100077;28;20489;-71
2021/03/12 04:37:32;;;;;;;11.97;11.33;;;22.70;93.70;;;;;;5071540;28;20438;-74
2021/03/12 04:39:59;;;;;;;11.50;10.90;;;22.70;93.70;;;;;;5067981;28;20428;-75
2021/03/12 04:42:25;;;;;;;10.67;10.17;;;22.70;93.70;;;;;;5078141;28;20520;-73
2021/03/12 04:44:50;;;;;;;11.40;10.80;;;22.70;93.60;;;;;;5103012;28;20951;-72
2021/03/12 04:47:16;;;;;;;11.40;10.90;;;22.70;93.70;;;;;;5102019;28;20185;-72
2021/03/12 04:49:46;;;;;;;13.83;13.00;;;22.70;93.60;;;;;;5101625;28;20276;-72
2021/03/12 04:52:17;;;;;;;14.27;13.57;;;22.70;93.60;;;;;;5094615;28;20690;-75
2021/03/12 04:54:45;;;;;;;11.40;10.90;;;22.70;93.60;;;;;;5096483;28;20470;-75
2021/03/12 04:57:13;;;;;;;12.00;11.40;;;22.70;93.60;;;;;;5097556;28;20442;-72
2021/03/12 04:59:39;;;;;;;12.83;12.23;;;22.70;93.60;;;;;;5099806;28;21007;-71
2021/03/12 05:02:05;;;;;;;12.53;11.63;;;22.70;93.60;;;;;;5101804;28;20424;-72
2021/03/12 05:04:33;;;;;;;11.90;11.30;;;22.70;93.60;;;;;;5100563;28;20205;-73
2021/03/12 05:07:00;;;;;;;12.10;11.60;;;22.70;94.00;;;;;;5095991;28;20615;-72
2021/03/12 05:09:26;;;;;;;11.20;10.70;;;22.70;93.60;;;;;;5082823;28;20435;-71
2021/03/12 05:11:51;;;;;;;12.00;11.43;;;22.70;93.60;;;;;;5108620;28;20431;-72
2021/03/12 05:14:19;;;;;;;12.30;11.70;;;22.70;93.60;;;;;;5073589;28;20759;-72
2021/03/12 05:16:44;;;;;;;11.87;11.27;;;22.70;93.50;;;;;;5102939;28;20201;-71
2021/03/12 05:19:10;;;;;;;11.70;11.10;;;22.70;93.50;;;;;;5089016;28;20411;-73
2021/03/12 05:21:36;;;;;;;12.00;11.50;;;22.70;93.50;;;;;;5105623;28;20189;-72
2021/03/12 05:24:02;;;;;;;11.63;11.00;;;22.70;93.50;;;;;;5102264;28;20187;-74
2021/03/12 05:26:28;;;;;;;11.70;11.20;;;22.70;93.50;;;;;;5084057;28;20201;-73
2021/03/12 05:28:54;;;;;;;11.53;11.03;;;22.70;93.50;;;;;;5104310;28;20427;-72
2021/03/12 05:31:23;;;;;;;13.60;12.90;;;22.70;93.50;;;;;;5085667;28;20451;-72
2021/03/12 05:33:52;;;;;;;11.47;10.97;;;22.70;93.50;;;;;;5107450;28;20232;-70
2021/03/12 05:36:18;;;;;;;12.40;11.90;;;22.70;93.50;;;;;;5106694;27;20547;-73
2021/03/12 05:38:44;;;;;;;12.67;12.17;;;22.70;93.50;;;;;;5082848;28;20443;-73
2021/03/12 05:41:10;;;;;;;11.33;10.83;;;22.70;93.50;;;;;;5104478;27;21314;-73
2021/03/12 05:43:35;;;;;;;12.57;11.97;;;22.70;93.50;;;;;;5079484;28;20680;-73
2021/03/12 05:46:03;;;;;;;12.23;11.70;;;22.70;93.50;;;;;;5099266;28;20206;-75
2021/03/12 05:48:28;;;;;;;12.10;11.50;;;22.60;93.40;;;;;;5080817;28;20662;-76
2021/03/12 05:51:00;;;;;;;12.83;12.23;;;22.60;93.40;;;;;;5083772;28;20539;-71
2021/03/12 05:53:26;;;;;;;11.33;10.80;;;22.70;93.40;;;;;;5108334;28;20797;-73
2021/03/12 05:55:54;;;;;;;11.73;11.23;;;22.70;93.40;;;;;;5098435;28;20965;-73
2021/03/12 05:58:20;;;;;;;12.63;12.13;;;22.70;93.40;;;;;;5099911;28;20916;-72
2021/03/12 06:00:46;;;;;;;12.13;11.63;;;22.70;93.40;;;;;;5099805;27;20430;-75
2021/03/12 06:03:11;;;;;;;10.20;9.73;;;22.60;93.30;;;;;;5086500;28;20282;-72
2021/03/12 06:05:38;;;;;;;12.43;11.70;;;22.70;93.40;;;;;;5098268;28;20585;-72
2021/03/12 06:08:04;;;;;;;11.30;10.80;;;22.60;93.30;;;;;;5103445;28;20624;-72
2021/03/12 06:10:31;;;;;;;12.00;11.43;;;22.60;93.30;;;;;;5101125;28;20432;-74
2021/03/12 06:12:57;;;;;;;11.07;10.47;;;22.70;93.30;;;;;;5063279;28;20552;-73
2021/03/12 06:15:43;;;;;;;11.07;10.47;;;22.70;93.30;;;;;;5083824;28;20453;-75
2021/03/12 06:18:27;;;;;;;13.13;12.43;;;22.60;93.30;;;;;;5101429;28;20412;-72
2021/03/12 06:20:54;;;;;;;10.90;10.40;;;22.60;93.30;;;;;;5103163;28;20956;-72
2021/03/12 06:23:37;;;;;;;12.33;11.73;;;22.60;93.30;;;;;;5083769;28;20848;-74
2021/03/12 06:26:04;;;;;;;11.03;10.43;;;22.60;93.20;;;;;;5099126;28;20481;-73
2021/03/12 06:28:30;;;;;;;11.40;10.80;;;22.60;93.20;;;;;;5104870;28;20468;-72
2021/03/12 06:30:56;;;;;;;11.50;10.90;;;22.70;93.30;;;;;;5082658;28;20448;-73
2021/03/12 06:33:29;;;;;;;10.73;10.23;;;22.60;93.20;;;;;;5083398;28;20494;-73
2021/03/12 06:35:56;;;;;;;12.10;11.50;;;22.60;93.20;;;;;;5084640;28;20194;-75
2021/03/12 06:38:22;;;;;;;11.33;10.80;;;22.70;93.20;;;;;;5094401;28;20736;-70
2021/03/12 06:40:48;;;;;;;11.60;11.10;;;22.70;93.20;;;;;;5103360;28;20818;-71
2021/03/12 06:43:26;;;;;;;10.80;10.30;;;22.70;93.20;;;;;;5103813;28;20423;-73
2021/03/12 06:46:00;;;;;;;11.70;11.03;;;22.70;93.20;;;;;;5098870;28;20906;-74
2021/03/12 06:48:33;;;;;;;11.70;11.10;;;22.70;93.20;;;;;;5107488;28;20489;-72
2021/03/12 06:51:10;;;;;;;10.60;10.13;;;22.70;93.10;;;;;;5102323;28;20424;-72
2021/03/12 06:53:45;;;;;;;11.07;10.47;;;22.70;93.20;;;;;;5100229;28;20459;-74
2021/03/12 06:56:13;;;;;;;11.93;11.43;;;22.70;93.10;;;;;;5096103;28;20462;-75
2021/03/12 06:58:56;;;;;;;11.93;11.33;;;22.70;93.10;;;;;;5068167;28;20895;-72
2021/03/12 07:01:22;;;;;;;10.70;10.00;;;22.70;93.10;;;;;;5097247;28;20431;-76
2021/03/12 07:04:06;;;;;;;12.13;11.53;;;22.70;93.10;;;;;;5096664;28;20444;-72
2021/03/12 07:06:46;;;;;;;11.50;11.00;;;22.70;93.10;;;;;;5082537;28;21846;-74
2021/03/12 07:09:12;;;;;;;11.30;10.80;;;22.70;93.00;;;;;;5096284;28;20427;-75
2021/03/12 07:11:38;;;;;;;11.60;11.10;;;22.70;93.00;;;;;;5099506;28;20431;-75
2021/03/12 07:14:04;;;;;;;10.53;9.93;;;22.70;93.00;;;;;;5096918;28;20455;-73
2021/03/12 07:16:30;;;;;;;10.80;10.30;;;22.70;93.00;;;;;;5099735;28;20550;-71
2021/03/12 07:18:56;;;;;;;11.90;11.30;;;22.70;92.90;;;;;;5082963;28;20177;-75
2021/03/12 07:21:25;;;;;;;10.90;10.40;;;22.70;92.90;;;;;;5098684;28;20864;-72
2021/03/12 07:23:59;;;;;;;12.20;11.60;;;22.70;92.90;;;;;;5081704;28;20439;-71
2021/03/12 07:26:31;;;;;;;10.03;9.63;;;22.70;93.00;;;;;;5099151;28;20455;-72
2021/03/12 07:29:00;;;;;;;11.03;10.53;;;22.70;92.90;;;;;;5083091;28;20427;-72
2021/03/12 07:31:35;;;;;;;10.47;9.97;;;22.70;93.00;;;;;;5104171;28;20439;-72
2021/03/12 07:34:06;;;;;;;11.13;10.63;;;22.70;92.90;;;;;;5096552;28;20491;-76
2021/03/12 07:36:32;;;;;;;11.30;10.80;;;22.70;92.90;;;;;;5101512;28;20504;-75
2021/03/12 07:39:03;;;;;;;11.73;11.23;;;22.70;92.90;;;;;;5082175;28;20436;-72
2021/03/12 07:45:03;;;;;;;12.17;11.67;;;22.70;93.60;;;;;;5111714;22;20492;-84
2021/03/12 07:47:29;;;;;;;12.10;11.40;;;22.70;94.40;;;;;;5044644;28;20454;-83
2021/03/12 07:49:55;;;;;;;11.33;10.83;;;22.70;94.80;;;;;;5044842;28;20877;-84
2021/03/12 07:52:49;;;;;;;10.70;10.20;;;22.70;95.10;;;;;;5040386;28;20417;-84
2021/03/12 07:55:53;;;;;;;11.90;11.23;;;22.70;95.40;;;;;;5041485;28;20446;-84
2021/03/12 07:58:48;;;;;;;9.90;9.40;;;22.70;95.50;;;;;;5045110;28;20900;-84
2021/03/12 08:01:13;;;;;;;11.90;11.20;;;22.70;95.50;;;;;;5033400;28;20449;-84
2021/03/12 08:03:40;;;;;;;10.80;10.30;;;22.70;95.60;;;;;;5047224;28;20430;-85
2021/03/12 08:06:18;;;;;;;11.17;10.67;;;22.70;95.50;;;;;;5040402;28;20187;-85
2021/03/12 08:08:45;;;;;;;9.97;9.57;;;22.70;95.60;;;;;;5041131;28;20433;-84
2021/03/12 08:11:24;;;;;;;11.10;10.60;;;22.70;95.60;;;;;;5025613;28;20430;-83
2021/03/12 08:14:10;;;;;;;11.50;11.00;;;22.70;95.60;;;;;;5043328;28;20484;-84
2021/03/12 08:16:56;;;;;;;10.20;9.67;;;22.70;95.60;;;;;;5041511;28;20454;-85
2021/03/12 08:19:46;;;;;;;12.63;12.03;;;22.70;95.60;;;;;;5030454;28;20435;-84
2021/03/12 08:22:27;;;;;;;12.97;12.37;;;22.80;95.70;;;;;;5042422;28;20433;-84
2021/03/12 08:24:55;;;;;;;12.87;12.07;;;22.80;95.30;;;;;;5036166;28;20438;-85
2021/03/12 08:27:39;;;;;;;11.70;11.20;;;22.80;95.20;;;;;;5029736;28;20458;-85
2021/03/12 08:30:10;;;;;;;12.23;11.60;;;22.80;95.00;;;;;;5039272;28;20434;-85
2021/03/12 08:32:37;;;;;;;12.13;11.63;;;22.80;95.00;;;;;;5042812;28;20430;-85
2021/03/12 08:35:05;;;;;;;13.00;12.10;;;22.80;94.90;;;;;;5040253;28;20465;-84
2021/03/12 08:37:30;;;;;;;11.90;11.27;;;22.80;94.90;;;;;;5045193;28;20567;-85
2021/03/12 08:40:14;;;;;;;11.93;11.43;;;22.80;94.80;;;;;;5042704;28;20509;-85
2021/03/12 08:43:03;;;;;;;11.83;11.17;;;22.80;94.80;;;;;;5045019;28;20724;-84
2021/03/12 08:45:39;;;;;;;12.03;11.53;;;22.80;94.70;;;;;;5039556;28;20438;-84
2021/03/12 08:48:11;;;;;;;11.27;10.77;;;22.80;94.70;;;;;;5023927;28;20438;-84
2021/03/12 08:50:50;;;;;;;11.87;11.37;;;22.80;94.70;;;;;;5042346;28;20447;-85
2021/03/12 08:53:17;;;;;;;10.80;10.30;;;22.80;94.70;;;;;;5032560;28;21111;-85
2021/03/12 08:55:45;;;;;;;11.70;11.20;;;22.80;94.70;;;;;;5047337;28;20442;-85
2021/03/12 08:58:24;;;;;;;12.30;11.70;;;22.80;94.70;;;;;;5045915;28;20465;-84
2021/03/12 09:00:58;;;;;;;12.77;12.17;;;22.80;94.70;;;;;;5011518;28;20435;-84
2021/03/12 09:03:33;;;;;;;12.20;11.70;;;22.80;94.70;;;;;;5044225;28;21006;-85
2021/03/12 09:06:06;;;;;;;12.57;11.97;;;22.80;94.90;;;;;;5046545;28;20417;-84
2021/03/12 09:08:37;;;;;;;11.63;11.13;;;22.80;94.80;;;;;;5053453;28;20568;-85
2021/03/12 09:11:05;;;;;;;12.00;11.33;;;22.80;94.80;;;;;;5043181;28;20440;-85
2021/03/12 09:13:32;;;;;;;12.47;11.97;;;22.80;94.80;;;;;;5057740;28;21047;-84
2021/03/12 09:16:01;;;;;;;12.53;11.93;;;22.80;94.90;;;;;;5047844;28;20430;-83
2021/03/12 09:18:27;;;;;;;12.90;12.40;;;22.80;94.90;;;;;;5044701;28;20495;-82
2021/03/12 09:20:58;;;;;;;12.37;11.87;;;22.80;94.90;;;;;;5044907;28;20438;-85
2021/03/12 09:23:39;;;;;;;11.60;11.10;;;22.80;94.90;;;;;;5049188;28;20433;-83
2021/03/12 09:26:13;;;;;;;12.07;11.47;;;22.80;94.90;;;;;;5048574;28;20455;-84
2021/03/12 09:28:40;;;;;;;12.80;12.20;;;22.80;95.00;;;;;;5045875;28;20453;-83
2021/03/12 09:31:08;;;;;;;11.90;11.40;;;22.80;95.40;;;;;;5051303;28;20469;-85
2021/03/12 09:33:42;;;;;;;11.30;10.80;;;22.80;95.00;;;;;;5048665;28;20507;-84
2021/03/12 09:36:23;;;;;;;12.20;11.67;;;22.80;95.10;;;;;;5029322;28;20445;-82
2021/03/12 09:38:50;;;;;;;12.00;11.50;;;22.80;95.10;;;;;;5039414;28;20453;-85
2021/03/12 09:41:20;;;;;;;13.10;12.60;;;22.90;95.20;;;;;;5026870;28;20421;-84
2021/03/12 09:44:04;;;;;;;12.20;11.70;;;22.90;95.10;;;;;;5039805;28;20479;-85
2021/03/12 09:46:58;;;;;;;12.70;12.20;;;22.90;95.10;;;;;;5030960;28;20434;-83
2021/03/12 09:50:15;;;;;;;12.23;11.73;;;22.90;95.10;;;;;;5052340;28;20449;-83
2021/03/12 09:52:46;;;;;;;12.77;12.27;;;22.90;95.10;;;;;;5048560;28;20518;-85
2021/03/12 09:55:12;;;;;;;11.93;11.43;;;22.90;95.50;;;;;;5005443;28;20441;-83
2021/03/12 09:57:38;;;;;;;14.17;13.57;;;22.90;95.10;;;;;;5046292;28;21130;-84
2021/03/12 10:00:09;;;;;;;14.40;13.80;;;23.00;95.20;;;;;;5048212;28;20492;-84
2021/03/12 10:02:49;;;;;;;13.27;12.67;;;23.00;95.20;;;;;;5012363;28;20187;-84
2021/03/12 10:05:18;;;;;;;12.20;11.50;;;23.00;95.30;;;;;;5042466;28;20534;-85
2021/03/12 10:07:46;;;;;;;13.30;12.70;;;23.00;95.50;;;;;;5009893;28;20454;-85
2021/03/12 10:10:24;;;;;;;12.40;11.73;;;23.00;95.60;;;;;;5024505;28;20438;-84
2021/03/12 10:12:54;;;;;;;11.87;11.37;;;23.00;95.50;;;;;;5025907;28;20424;-84
2021/03/12 10:15:27;;;;;;;13.43;12.73;;;23.00;95.50;;;;;;5046268;28;20426;-84
2021/03/12 10:17:53;;;;;;;14.10;13.50;;;23.10;95.60;;;;;;5029716;28;20445;-85
2021/03/12 10:20:24;;;;;;;13.70;13.10;;;23.10;95.70;;;;;;5039268;28;20500;-85
2021/03/12 10:22:59;;;;;;;12.77;12.07;;;23.10;95.70;;;;;;5028985;28;21147;-85
2021/03/12 10:25:39;;;;;;;14.27;13.43;;;23.10;95.70;;;;;;5024009;28;20425;-86
2021/03/12 10:28:18;;;;;;;13.83;13.20;;;23.10;95.70;;;;;;5007114;28;20486;-85
2021/03/12 10:30:56;;;;;;;14.10;13.50;;;23.10;95.80;;;;;;5010258;28;20465;-85
2021/03/12 10:33:28;;;;;;;11.97;11.47;;;23.10;95.80;;;;;;5013997;28;20532;-84
2021/03/12 10:35:56;;;;;;;12.50;11.90;;;23.10;95.80;;;;;;5025944;28;20539;-84
2021/03/12 10:38:27;;;;;;;12.40;11.90;;;23.10;95.80;;;;;;5047844;28;20541;-85
2021/03/12 10:40:59;;;;;;;11.80;11.30;;;23.10;95.80;;;;;;5049398;28;20408;-86
2021/03/12 10:43:30;;;;;;;12.13;11.53;;;23.10;95.80;;;;;;5022596;28;20441;-87
2021/03/12 10:46:06;;;;;;;11.03;10.63;;;23.10;95.70;;;;;;5020222;28;20446;-86
2021/03/12 10:48:40;;;;;;;12.40;11.80;;;23.10;95.70;;;;;;5042960;28;20457;-85
2021/03/12 10:51:07;;;;;;;12.67;12.07;;;23.10;95.60;;;;;;5014260;28;20466;-86
2021/03/12 10:53:54;;;;;;;13.90;13.30;;;23.10;95.70;;;;;;5044649;28;20462;-85
2021/03/12 10:56:26;;;;;;;13.13;12.53;;;23.20;95.70;;;;;;5018469;28;20497;-84
2021/03/12 10:58:53;;;;;;;12.37;11.77;;;23.20;95.80;;;;;;5014972;28;20427;-85
2021/03/12 11:01:40;;;;;;;;;;;;;;;;;;;;;
2021/03/12 11:04:10;;;;;;;13.23;12.53;;;23.20;96.50;;;;;;5043783;28;20434;-87
2021/03/12 11:06:37;;;;;;;12.53;11.80;;;23.20;96.80;;;;;;5020081;28;20485;-86
2021/03/12 11:09:09;;;;;;;13.27;12.67;;;23.20;96.80;;;;;;5035340;28;20446;-87
2021/03/12 11:11:36;;;;;;;13.00;12.40;;;23.20;97.00;;;;;;5032604;28;20461;-87
2021/03/12 11:14:05;;;;;;;11.97;11.37;;;23.20;97.00;;;;;;5044780;28;21015;-87
2021/03/12 11:16:31;;;;;;;12.50;11.80;;;23.20;97.00;;;;;;5021690;28;21028;-86
2021/03/12 11:18:56;;;;;;;13.07;12.50;;;23.20;96.90;;;;;;5011452;28;20447;-88
2021/03/12 11:21:25;;;;;;;11.40;10.90;;;23.20;96.90;;;;;;5045521;28;20625;-90
2021/03/12 11:23:53;;;;;;;13.63;12.93;;;23.30;96.90;;;;;;5019239;28;20175;-89
2021/03/12 11:26:20;;;;;;;12.47;11.97;;;23.30;97.00;;;;;;5040787;28;20509;-89
2021/03/12 11:28:47;;;;;;;11.97;11.37;;;23.30;96.90;;;;;;5028681;28;21008;-87
2021/03/12 11:31:13;;;;;;;14.00;13.37;;;23.30;96.90;;;;;;5052040;28;20441;-86
2021/03/12 11:33:39;;;;;;;12.27;11.67;;;23.30;96.90;;;;;;5044198;28;20516;-89
2021/03/12 11:36:07;;;;;;;13.30;12.63;;;23.30;96.80;;;;;;5018145;28;20520;-87
2021/03/12 11:38:34;;;;;;;13.50;12.80;;;23.30;96.80;;;;;;5024838;28;20196;-86
2021/03/12 11:41:26;;;;;;;12.50;11.40;;;23.30;96.80;;;;;;5024666;28;20510;-86
2021/03/12 11:44:58;;;;;;;12.17;11.50;;;23.30;96.80;;;;;;5021674;28;20449;-89
2021/03/12 11:47:24;;;;;;;13.77;12.80;;;23.30;96.80;;;;;;5014952;28;20508;-88
2021/03/12 11:49:50;;;;;;;14.00;13.30;;;23.30;96.70;;;;;;5039621;28;20432;-83
2021/03/12 11:52:23;;;;;;;14.07;13.47;;;23.30;96.80;;;;;;5030327;28;20545;-86
2021/03/12 11:54:49;;;;;;;13.33;12.77;;;23.30;96.70;;;;;;5010875;28;20219;-86
2021/03/12 12:00:20;;;;;;;12.53;11.83;;;23.30;96.60;;;;;;5049177;28;20432;-87
2021/03/12 12:09:38;;;;;;;13.30;12.70;;;21.40;73.60;;;;;;5037709;28;20445;-84
2021/03/12 12:12:04;;;;;;;14.73;13.80;;;20.60;73.60;;;;;;5041808;28;20430;-86
2021/03/12 12:14:30;;;;;;;15.80;15.00;;;20.40;75.30;;;;;;5020558;28;20463;-86
2021/03/12 12:16:55;;;;;;;14.27;13.60;;;19.80;70.80;;;;;;5038945;28;20797;-87
2021/03/12 12:19:21;;;;;;;15.43;14.33;;;19.80;71.20;;;;;;5024302;28;20195;-88
2021/03/12 12:21:47;;;;;;;16.03;15.23;;;19.50;70.20;;;;;;5045079;28;20533;-87
2021/03/12 12:24:13;;;;;;;14.63;13.70;;;19.60;74.00;;;;;;5001148;28;20192;-86
2021/03/12 12:26:38;;;;;;;14.90;13.70;;;19.50;72.80;;;;;;5026074;28;20565;-86
2021/03/12 12:29:05;;;;;;;14.93;13.83;;;19.50;71.60;;;;;;5024591;28;20218;-85
2021/03/12 12:31:32;;;;;;;15.50;14.40;;;19.30;70.90;;;;;;5042862;28;21196;-86
2021/03/12 12:33:58;;;;;;;13.57;12.87;;;19.20;68.90;;;;;;5029926;28;20470;-86
2021/03/12 12:36:27;;;;;;;14.03;13.33;;;19.40;70.90;;;;;;5037984;28;20453;-88
2021/03/12 12:38:56;;;;;;;14.53;13.37;;;19.10;70.00;;;;;;5041892;28;20450;-89
2021/03/12 12:41:22;;;;;;;13.80;12.90;;;19.10;72.20;;;;;;5024149;28;20466;-82
2021/03/12 12:43:49;;;;;;;13.47;12.77;;;19.80;83.70;;;;;;5040188;28;20473;-82
2021/03/12 12:46:15;;;;;;;15.80;14.80;;;20.50;83.70;;;;;;5039121;28;20513;-85
2021/03/12 12:48:41;;;;;;;13.27;12.47;;;20.90;84.10;;;;;;5039922;28;20469;-84
2021/03/12 12:51:07;;;;;;;14.43;13.73;;;21.20;83.40;;;;;;5031223;28;20444;-86
2021/03/12 12:53:33;;;;;;;13.63;12.93;;;21.40;84.20;;;;;;5038579;28;20542;-86
2021/03/12 12:56:00;;;;;;;13.60;12.80;;;21.60;85.50;;;;;;5030639;28;20446;-85